createdAt,value
2022-11-25T00:00:00.469Z,4.50
2022-11-25T00:02:27.093Z,4.40
2022-11-25T00:04:53.734Z,4.40
2022-11-25T00:07:20.328Z,4.40
2022-11-25T00:09:46.923Z,4.30
2022-11-25T00:12:13.572Z,4.30
2022-11-25T00:14:40.159Z,4.30
2022-11-25T00:17:06.785Z,4.20
2022-11-25T00:19:33.536Z,4.20
2022-11-25T00:22:05.023Z,4.20
2022-11-25T00:24:31.647Z,4.20
2022-11-25T00:26:58.292Z,4.10
2022-11-25T00:29:24.839Z,4.10
2022-11-25T00:31:53.848Z,4.10
2022-11-25T00:34:20.489Z,4.00
2022-11-25T00:36:49.534Z,4.00
2022-11-25T00:39:19.865Z,3.90
2022-11-25T00:42:05.725Z,3.90
2022-11-25T00:44:41.839Z,3.90
2022-11-25T00:47:11.686Z,3.90
2022-11-25T00:49:38.992Z,4.00
2022-11-25T00:52:07.966Z,3.90
2022-11-25T00:54:34.708Z,3.90
2022-11-25T00:57:01.436Z,3.90
2022-11-25T00:59:30.442Z,3.90
2022-11-25T01:01:57.134Z,3.90
2022-11-25T01:04:24.069Z,3.90
2022-11-25T01:06:50.631Z,3.90
2022-11-25T01:09:17.161Z,3.90
2022-11-25T01:11:43.713Z,4.00
2022-11-25T01:14:10.363Z,4.00
2022-11-25T01:16:37.013Z,4.00
2022-11-25T01:19:04.064Z,4.00
2022-11-25T01:21:31.592Z,3.90
2022-11-25T01:24:02.333Z,3.90
2022-11-25T01:26:29.600Z,3.90
2022-11-25T01:28:57.320Z,3.90
2022-11-25T01:31:25.254Z,3.90
2022-11-25T01:33:56.614Z,3.90
2022-11-25T01:36:23.731Z,3.90
2022-11-25T01:38:51.930Z,3.80
2022-11-25T01:41:21.227Z,3.80
2022-11-25T01:44:04.058Z,3.80
2022-11-25T01:46:34.381Z,3.80
2022-11-25T01:49:03.391Z,3.90
2022-11-25T01:51:29.908Z,3.90
2022-11-25T01:53:58.305Z,3.90
2022-11-25T01:56:26.251Z,3.90
2022-11-25T01:58:55.708Z,3.90
2022-11-25T02:01:22.643Z,3.90
2022-11-25T02:03:50.549Z,3.90
2022-11-25T02:06:21.569Z,3.90
2022-11-25T02:08:49.679Z,3.90
2022-11-25T02:11:17.036Z,3.80
2022-11-25T02:13:44.766Z,3.80
2022-11-25T02:16:11.371Z,3.90
2022-11-25T02:18:38.016Z,3.90
2022-11-25T02:21:07.219Z,3.90
2022-11-25T02:23:39.887Z,3.90
2022-11-25T02:26:06.487Z,3.90
2022-11-25T02:28:33.317Z,3.90
2022-11-25T02:30:59.881Z,3.80
2022-11-25T02:33:27.304Z,3.80
2022-11-25T02:35:56.592Z,3.80
2022-11-25T02:38:26.228Z,3.80
2022-11-25T02:41:06.031Z,3.80
2022-11-25T02:43:32.673Z,3.80
2022-11-25T02:46:01.849Z,3.80
2022-11-25T02:49:00.935Z,3.80
2022-11-25T02:51:20.652Z,3.80
2022-11-25T02:53:50.875Z,3.80
2022-11-25T02:56:18.252Z,3.70
2022-11-25T02:58:44.866Z,3.70
2022-11-25T03:01:11.475Z,3.70
2022-11-25T03:03:41.071Z,3.70
2022-11-25T03:06:07.920Z,3.70
2022-11-25T03:08:34.733Z,3.70
2022-11-25T03:11:01.390Z,3.70
2022-11-25T03:13:28.496Z,3.70
2022-11-25T03:15:55.062Z,3.60
2022-11-25T03:18:21.654Z,3.60
2022-11-25T03:20:51.536Z,3.60
2022-11-25T03:23:18.093Z,3.50
2022-11-25T03:25:44.629Z,3.50
2022-11-25T03:28:11.176Z,3.50
2022-11-25T03:30:39.942Z,3.50
2022-11-25T03:33:06.720Z,3.50
2022-11-25T03:35:35.526Z,3.60
2022-11-25T03:38:07.010Z,3.50
2022-11-25T03:40:33.608Z,3.50
2022-11-25T03:43:00.143Z,3.50
2022-11-25T03:45:26.825Z,3.60
2022-11-25T03:47:53.341Z,3.60
2022-11-25T03:50:19.962Z,3.60
2022-11-25T03:52:46.499Z,3.70
2022-11-25T03:55:15.663Z,3.70
2022-11-25T03:57:42.232Z,3.70
2022-11-25T04:00:11.609Z,3.70
2022-11-25T04:02:38.175Z,3.70
2022-11-25T04:05:05.462Z,3.80
2022-11-25T04:07:34.505Z,3.80
2022-11-25T04:10:01.091Z,3.80
2022-11-25T04:12:46.486Z,3.80
2022-11-25T04:15:13.819Z,3.80
2022-11-25T04:17:40.560Z,3.90
2022-11-25T04:20:07.357Z,3.90
2022-11-25T04:22:33.941Z,3.90
2022-11-25T04:25:00.652Z,3.90
2022-11-25T04:27:29.964Z,3.90
2022-11-25T04:29:56.519Z,4.00
2022-11-25T04:32:23.173Z,4.00
2022-11-25T04:34:49.762Z,3.90
2022-11-25T04:37:16.350Z,3.90
2022-11-25T04:39:45.386Z,3.90
2022-11-25T04:42:30.682Z,3.90
2022-11-25T04:45:21.284Z,3.90
2022-11-25T04:47:45.973Z,3.90
2022-11-25T04:50:14.366Z,3.90
2022-11-25T04:52:43.387Z,4.00
2022-11-25T04:55:10.012Z,4.00
2022-11-25T04:57:36.572Z,4.00
2022-11-25T05:00:04.089Z,4.10
2022-11-25T05:02:30.899Z,4.10
2022-11-25T05:04:58.212Z,4.10
2022-11-25T05:07:28.495Z,4.10
2022-11-25T05:09:57.634Z,4.10
2022-11-25T05:12:25.586Z,4.10
2022-11-25T05:14:52.249Z,4.10
2022-11-25T05:17:20.031Z,4.10
2022-11-25T05:19:47.105Z,4.10
2022-11-25T05:22:14.788Z,4.10
2022-11-25T05:24:41.334Z,4.20
2022-11-25T05:27:07.916Z,4.20
2022-11-25T05:29:34.635Z,4.20
2022-11-25T05:32:01.529Z,4.20
2022-11-25T05:34:28.088Z,4.20
2022-11-25T05:36:54.840Z,4.10
2022-11-25T05:39:21.359Z,4.20
2022-11-25T05:41:47.924Z,4.20
2022-11-25T05:44:18.384Z,4.20
2022-11-25T05:46:48.892Z,4.20
2022-11-25T05:49:15.906Z,4.10
2022-11-25T05:51:42.530Z,4.20
2022-11-25T05:54:09.100Z,4.20
2022-11-25T05:56:35.894Z,4.20
2022-11-25T05:59:03.161Z,4.20
2022-11-25T06:01:30.010Z,4.20
2022-11-25T06:03:59.594Z,4.20
2022-11-25T06:06:26.276Z,4.20
2022-11-25T06:08:52.807Z,4.20
2022-11-25T06:11:19.456Z,4.20
2022-11-25T06:13:46.021Z,4.20
2022-11-25T06:16:18.592Z,4.20
2022-11-25T06:18:45.185Z,4.20
2022-11-25T06:21:13.473Z,4.20
2022-11-25T06:23:40.303Z,4.20
2022-11-25T06:26:10.237Z,4.20
2022-11-25T06:28:36.821Z,4.20
2022-11-25T06:31:07.739Z,4.20
2022-11-25T06:33:36.804Z,4.20
2022-11-25T06:36:07.812Z,4.30
2022-11-25T06:38:34.755Z,4.30
2022-11-25T06:41:07.640Z,4.30
2022-11-25T06:43:34.170Z,4.30
2022-11-25T06:46:11.300Z,4.30
2022-11-25T06:48:40.351Z,4.40
2022-11-25T06:51:08.054Z,4.40
2022-11-25T06:53:35.029Z,4.40
2022-11-25T06:56:21.855Z,4.50
2022-11-25T06:58:48.844Z,4.50
2022-11-25T07:01:21.830Z,4.50
2022-11-25T07:03:49.119Z,4.60
2022-11-25T07:06:16.520Z,4.60
2022-11-25T07:08:45.906Z,4.60
2022-11-25T07:11:12.404Z,4.60
2022-11-25T07:13:38.918Z,4.60
2022-11-25T07:16:06.279Z,4.60
2022-11-25T07:18:36.691Z,4.60
2022-11-25T07:21:04.416Z,4.60
2022-11-25T07:23:33.554Z,4.60
2022-11-25T07:26:13.223Z,4.70
2022-11-25T07:28:42.568Z,4.70
2022-11-25T07:31:28.677Z,4.70
2022-11-25T07:34:06.806Z,4.70
2022-11-25T07:36:33.986Z,4.70
2022-11-25T07:39:01.317Z,4.70
2022-11-25T07:41:28.581Z,4.80
2022-11-25T07:43:56.729Z,4.80
2022-11-25T07:46:27.832Z,4.80
2022-11-25T07:48:55.576Z,4.90
2022-11-25T07:51:33.182Z,4.90
2022-11-25T07:54:00.971Z,4.90
2022-11-25T07:56:30.009Z,4.90
2022-11-25T07:58:57.031Z,5.00
2022-11-25T08:01:24.305Z,5.00
2022-11-25T08:03:51.276Z,5.00
2022-11-25T08:06:25.153Z,5.00
2022-11-25T08:08:55.706Z,5.00
2022-11-25T08:11:24.310Z,5.00
2022-11-25T08:13:51.146Z,5.00
2022-11-25T08:16:19.074Z,5.00
2022-11-25T08:18:46.078Z,5.00
2022-11-25T08:21:13.517Z,5.00
2022-11-25T08:23:40.829Z,5.00
2022-11-25T08:26:08.605Z,5.00
2022-11-25T08:28:35.324Z,5.10
2022-11-25T08:31:02.952Z,5.10
2022-11-25T08:33:29.716Z,5.10
2022-11-25T08:35:56.355Z,5.10
2022-11-25T08:38:23.265Z,5.10
2022-11-25T08:40:49.924Z,5.10
2022-11-25T08:43:22.773Z,5.20
2022-11-25T08:45:51.762Z,5.20
2022-11-25T08:48:19.906Z,5.20
2022-11-25T08:50:50.893Z,5.30
2022-11-25T08:53:17.752Z,5.30
2022-11-25T08:55:46.696Z,5.30
2022-11-25T08:58:13.355Z,5.40
2022-11-25T09:00:41.290Z,5.40
2022-11-25T09:03:08.055Z,5.50
2022-11-25T09:05:36.140Z,5.50
2022-11-25T09:08:03.765Z,5.50
2022-11-25T09:10:30.644Z,5.60
2022-11-25T09:12:57.317Z,5.60
2022-11-25T09:15:26.455Z,5.60
2022-11-25T09:18:06.230Z,5.60
2022-11-25T09:20:35.672Z,5.70
2022-11-25T09:23:02.394Z,5.70
2022-11-25T09:25:29.096Z,5.70
2022-11-25T09:27:56.468Z,5.70
2022-11-25T09:30:23.782Z,5.70
2022-11-25T09:32:53.215Z,5.70
2022-11-25T09:35:20.310Z,5.80
2022-11-25T09:37:46.905Z,5.80
2022-11-25T09:40:33.731Z,5.90
2022-11-25T09:43:25.646Z,5.90
2022-11-25T09:46:22.436Z,5.90
2022-11-25T09:48:58.016Z,6.00
2022-11-25T09:51:40.267Z,6.00
2022-11-25T09:54:29.794Z,6.00
2022-11-25T09:57:03.171Z,6.00
2022-11-25T09:59:34.698Z,6.10
2022-11-25T10:02:03.072Z,6.10
2022-11-25T10:04:34.296Z,6.10
2022-11-25T10:07:02.677Z,6.20
2022-11-25T10:09:32.158Z,6.20
2022-11-25T10:12:03.828Z,6.20
2022-11-25T10:14:45.206Z,6.20
2022-11-25T10:17:17.934Z,6.20
2022-11-25T10:19:56.770Z,6.30
2022-11-25T10:22:25.822Z,6.30
2022-11-25T10:24:54.582Z,6.30
2022-11-25T10:27:26.415Z,6.30
2022-11-25T10:30:07.069Z,6.30
2022-11-25T10:32:40.720Z,6.40
2022-11-25T10:35:11.688Z,6.40
2022-11-25T10:37:40.279Z,6.40
2022-11-25T10:40:09.566Z,6.40
2022-11-25T10:42:36.938Z,6.40
2022-11-25T10:45:08.847Z,6.40
2022-11-25T10:47:35.518Z,6.50
2022-11-25T10:50:14.428Z,6.50
2022-11-25T10:52:44.188Z,6.50
2022-11-25T10:55:13.507Z,6.60
2022-11-25T10:57:40.087Z,6.60
2022-11-25T11:00:12.824Z,6.60
2022-11-25T11:02:47.981Z,6.70
2022-11-25T11:05:14.559Z,6.70
2022-11-25T11:07:44.756Z,6.70
2022-11-25T11:10:11.391Z,6.80
2022-11-25T11:12:40.357Z,6.80
2022-11-25T11:15:20.583Z,6.90
2022-11-25T11:17:48.518Z,7.00
2022-11-25T11:20:25.650Z,7.10
2022-11-25T11:23:08.892Z,7.10
2022-11-25T11:25:37.020Z,7.10
2022-11-25T11:28:04.132Z,7.20
2022-11-25T11:30:34.532Z,7.20
2022-11-25T11:33:23.989Z,7.30
2022-11-25T11:35:55.558Z,7.30
2022-11-25T11:38:37.488Z,7.40
2022-11-25T11:41:22.456Z,7.60
2022-11-25T11:43:51.439Z,7.70
2022-11-25T11:46:27.632Z,7.80
2022-11-25T11:49:07.836Z,7.90
2022-11-25T11:51:46.169Z,7.90
2022-11-25T11:54:22.624Z,8.00
2022-11-25T11:56:55.626Z,8.10
2022-11-25T11:59:42.437Z,8.10
2022-11-25T12:02:27.656Z,8.10
2022-11-25T12:04:54.249Z,8.10
2022-11-25T12:07:26.761Z,8.20
2022-11-25T12:10:05.096Z,8.20
2022-11-25T12:12:54.975Z,8.30
2022-11-25T12:15:31.852Z,8.40
2022-11-25T12:18:01.824Z,8.30
2022-11-25T12:20:46.954Z,8.30
2022-11-25T12:23:13.438Z,8.30
2022-11-25T12:25:43.426Z,8.30
2022-11-25T12:28:36.613Z,8.30
2022-11-25T12:31:12.962Z,8.40
2022-11-25T12:33:43.964Z,8.40
2022-11-25T12:36:13.274Z,8.40
2022-11-25T12:38:45.413Z,8.50
2022-11-25T12:41:14.993Z,8.60
2022-11-25T12:43:50.670Z,8.60
2022-11-25T12:46:17.303Z,8.70
2022-11-25T12:48:44.098Z,8.80
2022-11-25T12:51:21.917Z,8.80
2022-11-25T12:53:58.128Z,8.80
2022-11-25T12:56:28.463Z,8.80
2022-11-25T12:59:01.156Z,8.90
2022-11-25T13:02:06.250Z,8.90
2022-11-25T13:04:48.147Z,8.90
2022-11-25T13:07:26.430Z,9.00
2022-11-25T13:10:01.351Z,9.00
2022-11-25T13:12:53.384Z,9.00
2022-11-25T13:15:23.680Z,9.00
2022-11-25T13:17:51.545Z,9.00
2022-11-25T13:20:27.305Z,9.00
2022-11-25T13:23:07.920Z,9.00
2022-11-25T13:25:35.281Z,9.00
2022-11-25T13:28:03.512Z,9.00
2022-11-25T13:30:30.048Z,9.10
2022-11-25T13:32:56.593Z,9.10
2022-11-25T13:35:24.485Z,9.10
2022-11-25T13:37:53.731Z,9.10
2022-11-25T13:40:20.275Z,9.10
2022-11-25T13:42:49.195Z,9.10
2022-11-25T13:45:28.586Z,9.10
2022-11-25T13:48:03.612Z,9.20
2022-11-25T13:50:48.386Z,9.20
2022-11-25T13:53:35.649Z,9.20
2022-11-25T13:56:20.390Z,9.30
2022-11-25T13:59:05.692Z,9.30
2022-11-25T14:01:32.212Z,9.40
2022-11-25T14:04:00.946Z,9.40
2022-11-25T14:06:50.996Z,9.40
2022-11-25T14:09:32.999Z,9.40
2022-11-25T14:11:59.588Z,9.40
2022-11-25T14:14:35.362Z,9.40
2022-11-25T14:17:05.001Z,9.40
2022-11-25T14:22:31.002Z,9.40
2022-11-25T14:25:09.065Z,9.50
2022-11-25T14:27:38.247Z,9.40
2022-11-25T14:30:06.093Z,9.40
2022-11-25T14:32:32.602Z,9.40
2022-11-25T14:35:05.635Z,9.40
2022-11-25T14:37:41.337Z,9.40
2022-11-25T14:40:15.475Z,9.40
2022-11-25T14:42:44.174Z,9.40
2022-11-25T14:45:40.472Z,9.40
2022-11-25T14:48:17.485Z,9.40
2022-11-25T14:50:54.423Z,9.40
2022-11-25T14:53:20.965Z,9.40
2022-11-25T14:55:48.384Z,9.30
2022-11-25T14:58:17.524Z,9.40
2022-11-25T15:00:51.984Z,9.40
2022-11-25T15:03:20.807Z,9.40
2022-11-25T15:05:53.737Z,9.30
2022-11-25T15:08:22.038Z,9.30
2022-11-25T15:10:57.509Z,9.30
2022-11-25T15:13:29.875Z,9.30
2022-11-25T15:16:02.389Z,9.30
2022-11-25T15:18:28.987Z,9.30
2022-11-25T15:20:59.419Z,9.30
2022-11-25T15:23:28.922Z,9.30
2022-11-25T15:25:55.541Z,9.30
2022-11-25T15:28:24.647Z,9.30
2022-11-25T16:16:47.319Z,9.00
2022-11-25T16:19:16.650Z,9.00
2022-11-25T16:21:50.261Z,9.00
2022-11-25T16:24:37.732Z,9.00
2022-11-25T16:27:04.407Z,8.90
2022-11-25T16:29:33.278Z,8.90
2022-11-25T16:32:14.784Z,8.80
2022-11-25T16:34:44.143Z,8.80
2022-11-25T16:37:10.812Z,8.80
2022-11-25T16:39:38.592Z,8.80
2022-11-25T16:44:47.912Z,8.80
2022-11-25T16:47:14.604Z,8.90
2022-11-25T16:49:43.571Z,8.90
2022-11-25T16:52:10.339Z,8.90
2022-11-25T16:54:39.208Z,8.90
2022-11-25T16:57:07.560Z,8.90
2022-11-25T16:59:41.365Z,8.90
2022-11-25T17:02:19.026Z,8.90
2022-11-25T17:04:45.931Z,8.90
2022-11-25T17:10:00.212Z,8.90
2022-11-25T17:12:28.552Z,8.90
2022-11-25T17:14:55.322Z,8.90
2022-11-25T17:17:24.766Z,8.90
2022-11-25T17:19:52.077Z,8.90
2022-11-25T17:22:19.870Z,8.90
2022-11-25T17:24:46.532Z,8.90
2022-11-25T17:27:18.612Z,8.90
2022-11-25T17:29:45.542Z,8.90
2022-11-25T17:32:12.703Z,8.90
2022-11-25T17:34:39.743Z,8.90
2022-11-25T17:37:16.671Z,8.80
2022-11-25T17:39:45.752Z,8.70
2022-11-25T17:42:13.718Z,8.70
2022-11-25T17:44:42.178Z,8.60
2022-11-25T17:47:13.794Z,8.60
2022-11-25T17:49:40.697Z,8.60
2022-11-25T17:52:07.668Z,8.60
2022-11-25T17:54:34.612Z,8.60
2022-11-25T17:57:01.460Z,8.60
2022-11-25T17:59:29.397Z,8.60
2022-11-25T18:01:56.385Z,8.60
2022-11-25T18:04:26.000Z,8.60
2022-11-25T18:06:52.869Z,8.60
2022-11-25T18:09:19.998Z,8.70
2022-11-25T18:11:48.019Z,8.60
2022-11-25T18:14:18.445Z,8.60
2022-11-25T18:16:47.754Z,8.60
2022-11-25T18:19:14.402Z,8.70
2022-11-25T18:21:41.268Z,8.60
2022-11-25T18:24:10.074Z,8.50
2022-11-25T18:26:41.477Z,8.50
2022-11-25T18:29:12.686Z,8.50
2022-11-25T18:31:39.818Z,8.50
2022-11-25T18:34:13.010Z,8.50
2022-11-25T18:36:39.682Z,8.50
2022-11-25T18:39:06.332Z,8.50
2022-11-25T18:41:35.513Z,8.50
2022-11-25T18:44:06.063Z,8.40
2022-11-25T18:46:38.497Z,8.40
2022-11-25T18:49:10.992Z,8.40
2022-11-25T18:51:37.728Z,8.40
2022-11-25T18:54:04.387Z,8.40
2022-11-25T18:56:31.055Z,8.40
2022-11-25T18:59:00.171Z,8.40
2022-11-25T19:01:27.344Z,8.40
2022-11-25T19:03:55.385Z,8.30
2022-11-25T19:06:28.087Z,8.30
2022-11-25T19:08:55.361Z,8.30
2022-11-25T19:11:36.408Z,8.30
2022-11-25T19:14:08.801Z,8.30
2022-11-25T19:16:35.731Z,8.30
2022-11-25T19:19:02.806Z,8.30
2022-11-25T19:21:30.864Z,8.30
2022-11-25T19:23:57.558Z,8.30
2022-11-25T19:26:26.544Z,8.30
2022-11-25T19:28:55.857Z,8.30
2022-11-25T19:31:22.656Z,8.30
2022-11-25T19:33:51.860Z,8.30
2022-11-25T19:36:25.423Z,8.20
2022-11-25T19:38:54.669Z,8.30
2022-11-25T19:41:21.386Z,8.30
2022-11-25T19:43:48.150Z,8.20
2022-11-25T19:46:29.402Z,8.20
2022-11-25T19:48:58.501Z,8.10
2022-11-25T19:51:29.081Z,8.10
2022-11-25T19:53:55.735Z,8.10
2022-11-25T19:56:27.133Z,8.10
2022-11-25T19:58:54.315Z,8.10
2022-11-25T20:01:23.622Z,8.00
2022-11-25T20:03:51.053Z,8.00
2022-11-25T20:06:19.431Z,8.00
2022-11-25T20:08:46.405Z,7.90
2022-11-25T20:11:13.959Z,7.90
2022-11-25T20:13:43.376Z,7.90
2022-11-25T20:16:30.514Z,7.90
2022-11-25T20:18:58.055Z,7.80
2022-11-25T20:21:35.973Z,7.80
2022-11-25T20:24:04.139Z,7.70
2022-11-25T20:26:31.964Z,7.70
2022-11-25T20:28:58.672Z,7.60
2022-11-25T20:31:30.807Z,7.60
2022-11-25T20:33:57.747Z,7.60
2022-11-25T20:36:31.444Z,7.60
2022-11-25T20:38:59.763Z,7.50
2022-11-25T20:41:28.087Z,7.50
2022-11-25T20:43:55.576Z,7.50
2022-11-25T20:46:26.900Z,7.50
2022-11-25T20:48:54.660Z,7.40
2022-11-25T20:51:22.261Z,7.40
2022-11-25T20:53:50.018Z,7.30
2022-11-25T20:56:17.900Z,7.30
2022-11-25T20:58:45.115Z,7.20
2022-11-25T21:01:12.523Z,7.30
2022-11-25T21:03:39.106Z,7.30
2022-11-25T21:06:16.590Z,7.30
2022-11-25T21:08:45.334Z,7.40
2022-11-25T21:11:11.846Z,7.40
2022-11-25T21:13:38.379Z,7.40
2022-11-25T21:16:05.125Z,7.40
2022-11-25T21:18:31.730Z,7.30
2022-11-25T21:20:58.316Z,7.30
2022-11-25T21:23:27.038Z,7.20
2022-11-25T21:25:54.748Z,7.20
2022-11-25T21:28:22.948Z,7.10
2022-11-25T21:30:49.736Z,7.00
2022-11-25T21:33:16.711Z,7.00
2022-11-25T21:35:45.306Z,6.90
2022-11-25T21:38:14.987Z,6.90
2022-11-25T21:40:42.471Z,6.90
2022-11-25T21:43:21.682Z,6.90
2022-11-25T21:45:49.496Z,6.90
2022-11-25T21:48:20.409Z,7.00
2022-11-25T21:50:47.073Z,7.00
2022-11-25T21:53:14.000Z,7.10
2022-11-25T21:55:40.606Z,7.00
2022-11-25T21:58:18.246Z,7.00
2022-11-25T22:00:51.668Z,6.90
2022-11-25T22:03:19.308Z,6.90
2022-11-25T22:05:46.308Z,6.90
2022-11-25T22:08:12.855Z,6.90
2022-11-25T22:10:40.413Z,6.90
2022-11-25T22:13:07.385Z,6.90
2022-11-25T22:15:34.966Z,6.90
2022-11-25T22:18:01.595Z,6.70
2022-11-25T22:20:30.096Z,6.70
2022-11-25T22:22:59.333Z,6.80
2022-11-25T22:25:27.297Z,6.80
2022-11-25T22:27:53.915Z,6.80
2022-11-25T22:30:21.796Z,6.80
2022-11-25T22:32:49.800Z,6.90
2022-11-25T22:35:20.079Z,6.90
2022-11-25T22:37:51.974Z,6.90
2022-11-25T22:40:21.733Z,6.80
2022-11-25T22:42:49.937Z,6.70
2022-11-25T22:45:45.848Z,6.70
2022-11-25T22:48:15.087Z,6.80
2022-11-25T22:50:43.106Z,6.80
2022-11-25T22:53:13.750Z,6.80
2022-11-25T22:55:40.387Z,6.80
2022-11-25T22:58:06.940Z,6.80
2022-11-25T23:00:35.319Z,6.80
2022-11-25T23:03:03.887Z,6.80
2022-11-25T23:05:33.412Z,6.90
2022-11-25T23:08:11.163Z,6.90
2022-11-25T23:10:38.067Z,6.90
2022-11-25T23:13:04.615Z,6.90
2022-11-25T23:15:33.895Z,6.90
2022-11-25T23:18:01.400Z,7.00
2022-11-25T23:20:30.151Z,7.00
2022-11-25T23:22:57.473Z,7.00
2022-11-25T23:25:24.102Z,7.00
2022-11-25T23:27:50.653Z,7.10
2022-11-25T23:30:18.494Z,7.00
2022-11-25T23:32:48.825Z,7.10
2022-11-25T23:35:31.965Z,7.10
2022-11-25T23:37:58.657Z,7.00
2022-11-25T23:40:25.776Z,7.10
2022-11-25T23:42:52.745Z,7.10
2022-11-25T23:45:20.280Z,7.00
2022-11-25T23:47:47.796Z,7.00
2022-11-25T23:50:28.958Z,7.00
2022-11-25T23:52:57.669Z,7.00
2022-11-25T23:55:26.358Z,7.00
2022-11-25T23:57:53.092Z,6.90
